KPAE/PAE METAR and TAF weather

Enter ICAO airport designator
Station Type Date Time Source
KPAE METAR 2020/01/21 08:53 UTC NOAA

KPAE 210853Z 14007KT 090V160 10SM SCT090 OVC110 09/01 A2963 RMK AO2 SLP036 T00940006 56027


Station Type Date Time Source
KPAE Decoded METAR 2020/01/21 08:53 UTC NOAA

EVERETT SNOHOMISH COUNTY, WA, United States (KPAE) 47-55N 122-17W 180M
Jan 21, 2020 - 03:53 AM EST / 2020.01.21 0853 UTC
Wind: from the SE (140 degrees) at 8 MPH (7 KT) (direction variable):0
Visibility: 10 mile(s):0
Sky conditions: overcast
Temperature: 48.9 F (9.4 C)
Dew Point: 33.1 F (0.6 C)
Relative Humidity: 54%
Pressure (altimeter): 29.63 in. Hg (1003 hPa)
Pressure tendency: 0.08 inches (2.7 hPa) lower than three hours ago
ob: KPAE 210853Z 14007KT 090V160 10SM SCT090 OVC110 09/01 A2963 RMK AO2 SLP036 T00940006 56027
cycle: 9

Station Type Date Time Source
KPAE TAF 2020/01/21 06:22 UTC NOAA

TAF KPAE 210520Z 2106/2206 14008KT P6SM BKN100 OVC200
FM211000 15010KT P6SM -RA SCT020 BKN040 OVC060
FM211500 17015G25KT 6SM -SHRA BR OVC020

Example: see airport list